Time;durP1;ratioP1;P1;durP2;ratioP2;P2;SDS_P1;SDS_P2;PMS_P1;PMS_P2;Temp;Humidity;BMP_temperature;BMP_pressure;BME280_temperature;BME280_humidity;BME280_pressure;Samples;Min_cycle;Max_cycle;Signal;HPM_P1;HPM_P2
2022/12/13 00:01:53;;;;;;;6.53;2.60;;;;;;;;;;5076524;28;20032;-31
2022/12/13 00:04:20;;;;;;;8.45;2.95;;;;;;;;;;5094209;28;20052;-31
2022/12/13 00:06:47;;;;;;;6.03;2.38;;;;;;;;;;5094645;28;20024;-31
2022/12/13 00:09:14;;;;;;;7.05;2.65;;;;;;;;;;5094584;28;20028;-31
2022/12/13 00:11:40;;;;;;;10.48;4.53;;;;;;;;;;5094316;28;20023;-31
2022/12/13 00:14:07;;;;;;;10.73;2.42;;;;;;;;;;5076427;28;20039;-30
2022/12/13 00:16:33;;;;;;;4.75;2.22;;;;;;;;;;5094246;28;20139;-31
2022/12/13 00:19:00;;;;;;;7.32;2.50;;;;;;;;;;5097674;28;20081;-31
2022/12/13 00:21:30;;;;;;;5.03;2.60;;;;;;;;;;5098097;28;20032;-31
2022/12/13 00:23:57;;;;;;;9.45;2.35;;;;;;;;;;5080120;28;20522;-31
2022/12/13 00:26:25;;;;;;;7.43;2.67;;;;;;;;;;5098003;28;20096;-32
2022/12/13 00:28:53;;;;;;;9.77;2.85;;;;;;;;;;5080061;28;20024;-31
2022/12/13 00:31:20;;;;;;;4.47;2.22;;;;;;;;;;5097931;28;20027;-32
2022/12/13 00:33:46;;;;;;;3.78;2.30;;;;;;;;;;5097816;28;20146;-31
2022/12/13 00:36:12;;;;;;;7.60;2.80;;;;;;;;;;5098641;28;20066;-32
2022/12/13 00:38:38;;;;;;;7.68;2.08;;;;;;;;;;5097636;28;20470;-31
2022/12/13 00:41:14;;;;;;;7.13;3.53;;;;;;;;;;5097982;28;20028;-32
2022/12/13 00:43:40;;;;;;;7.35;2.70;;;;;;;;;;5097896;28;20038;-31
2022/12/13 00:46:08;;;;;;;5.07;2.80;;;;;;;;;;5079831;28;20016;-31
2022/12/13 00:48:34;;;;;;;5.82;2.30;;;;;;;;;;5097575;28;20027;-32
2022/12/13 00:51:00;;;;;;;6.20;3.08;;;;;;;;;;5097592;28;20093;-31
2022/12/13 00:53:26;;;;;;;9.63;2.42;;;;;;;;;;5079630;28;20060;-32
2022/12/13 00:55:52;;;;;;;2.85;1.85;;;;;;;;;;5097469;28;20450;-31
2022/12/13 00:58:19;;;;;;;6.63;2.60;;;;;;;;;;5097611;28;20032;-31
2022/12/13 01:00:45;;;;;;;5.95;2.60;;;;;;;;;;5097355;28;20031;-32
2022/12/13 01:03:24;;;;;;;7.13;2.15;;;;;;;;;;5076276;28;20048;-32
2022/12/13 01:05:50;;;;;;;4.45;3.45;;;;;;;;;;5077075;28;20451;-32
2022/12/13 01:08:16;;;;;;;7.65;2.55;;;;;;;;;;5077261;28;20107;-31
2022/12/13 01:10:44;;;;;;;6.32;2.38;;;;;;;;;;5075969;28;20036;-31
2022/12/13 01:13:10;;;;;;;4.13;1.92;;;;;;;;;;5076779;28;20024;-32
2022/12/13 01:15:40;;;;;;;5.65;2.13;;;;;;;;;;5076788;28;20047;-31
2022/12/13 01:18:07;;;;;;;5.90;3.23;;;;;;;;;;5077134;28;20086;-31
2022/12/13 01:20:33;;;;;;;6.93;2.28;;;;;;;;;;5076946;28;20059;-31
2022/12/13 01:22:59;;;;;;;6.93;2.88;;;;;;;;;;5092492;28;20423;-32
2022/12/13 01:25:27;;;;;;;5.45;2.33;;;;;;;;;;5076579;28;20028;-32
2022/12/13 01:27:53;;;;;;;8.48;2.13;;;;;;;;;;5076106;28;20033;-31
2022/12/13 01:30:19;;;;;;;7.53;2.15;;;;;;;;;;5076542;28;20119;-31
2022/12/13 01:32:45;;;;;;;6.88;2.63;;;;;;;;;;5076382;28;20056;-31
2022/12/13 01:35:12;;;;;;;9.95;3.72;;;;;;;;;;5076392;28;20074;-31
2022/12/13 01:37:39;;;;;;;4.32;2.53;;;;;;;;;;5076978;28;20094;-32
2022/12/13 01:40:05;;;;;;;5.25;2.22;;;;;;;;;;5076572;28;20021;-31
2022/12/13 01:42:31;;;;;;;6.05;2.08;;;;;;;;;;5076217;28;20115;-32
2022/12/13 01:45:05;;;;;;;5.53;2.50;;;;;;;;;;5076244;28;20305;-31
2022/12/13 01:47:43;;;;;;;2.67;2.17;;;;;;;;;;5076238;28;20033;-31
2022/12/13 01:50:12;;;;;;;4.55;2.08;;;;;;;;;;5076381;28;20044;-31
2022/12/13 01:52:39;;;;;;;2.50;1.90;;;;;;;;;;5076040;28;20045;-31
2022/12/13 01:55:06;;;;;;;6.53;2.50;;;;;;;;;;5076019;28;20084;-31
2022/12/13 01:57:33;;;;;;;7.03;2.60;;;;;;;;;;5076264;28;20052;-31
2022/12/13 02:00:00;;;;;;;6.55;3.05;;;;;;;;;;5075890;28;20359;-32
2022/12/13 02:02:26;;;;;;;4.25;2.95;;;;;;;;;;5079036;28;20040;-31
2022/12/13 02:04:55;;;;;;;5.60;2.22;;;;;;;;;;5096095;28;20024;-31
2022/12/13 02:07:24;;;;;;;9.25;3.05;;;;;;;;;;5078217;28;20024;-32
2022/12/13 02:09:52;;;;;;;3.53;2.08;;;;;;;;;;5096013;28;20028;-31
2022/12/13 02:12:18;;;;;;;3.97;2.50;;;;;;;;;;5096182;28;20066;-32
2022/12/13 02:14:44;;;;;;;4.63;2.33;;;;;;;;;;5095899;28;20105;-32
2022/12/13 02:17:21;;;;;;;4.10;2.55;;;;;;;;;;5095899;28;20039;-31
2022/12/13 02:19:47;;;;;;;3.45;2.20;;;;;;;;;;5077873;28;20447;-31
2022/12/13 02:22:16;;;;;;;4.85;2.65;;;;;;;;;;5095700;28;20508;-31
2022/12/13 02:25:02;;;;;;;5.85;2.35;;;;;;;;;;5095936;28;20194;-31
2022/12/13 02:27:43;;;;;;;7.60;2.90;;;;;;;;;;5095936;28;20028;-31
2022/12/13 02:30:29;;;;;;;4.22;2.17;;;;;;;;;;5095666;28;20031;-32
2022/12/13 02:33:14;;;;;;;5.78;2.65;;;;;;;;;;5095521;28;20016;-31
2022/12/13 02:35:46;;;;;;;6.00;2.97;;;;;;;;;;5095821;28;20092;-31
2022/12/13 02:38:24;;;;;;;4.63;2.20;;;;;;;;;;5095788;28;20028;-32
2022/12/13 02:40:55;;;;;;;4.00;2.47;;;;;;;;;;5095234;28;20024;-31
2022/12/13 02:43:25;;;;;;;2.85;2.30;;;;;;;;;;5095576;28;20020;-31
2022/12/13 02:45:54;;;;;;;3.33;2.20;;;;;;;;;;5095948;28;20020;-31
2022/12/13 02:48:34;;;;;;;5.43;2.50;;;;;;;;;;5095594;28;20016;-32
2022/12/13 02:51:02;;;;;;;5.65;2.25;;;;;;;;;;5095272;28;20351;-32
2022/12/13 02:53:28;;;;;;;7.60;2.33;;;;;;;;;;5095214;28;20020;-31
2022/12/13 02:55:54;;;;;;;4.85;2.22;;;;;;;;;;5095451;28;20024;-31
2022/12/13 02:58:23;;;;;;;6.18;2.38;;;;;;;;;;5095950;28;20024;-31
2022/12/13 03:01:01;;;;;;;5.68;2.63;;;;;;;;;;5095649;28;20104;-31
2022/12/13 03:03:27;;;;;;;4.28;1.83;;;;;;;;;;5094806;28;20055;-30
2022/12/13 03:09:10;;;;;;;2.63;2.30;;;;;;;;;;5095391;28;20525;-31
2022/12/13 03:14:26;;;;;;;2.17;1.98;;;;;;;;;;5095219;28;20047;-31
2022/12/13 03:16:54;;;;;;;6.57;2.65;;;;;;;;;;5094902;28;20020;-31
2022/12/13 03:19:20;;;;;;;2.47;2.28;;;;;;;;;;5076965;28;20035;-31
2022/12/13 03:21:47;;;;;;;5.78;2.22;;;;;;;;;;5094989;28;20028;-31
2022/12/13 03:24:15;;;;;;;8.07;2.85;;;;;;;;;;5094800;28;20031;-31
2022/12/13 03:26:42;;;;;;;2.90;2.58;;;;;;;;;;5095271;28;20082;-31
2022/12/13 03:29:08;;;;;;;4.00;2.25;;;;;;;;;;5094735;28;20024;-31
2022/12/13 03:31:34;;;;;;;4.40;2.72;;;;;;;;;;5094978;28;20043;-32
2022/12/13 03:34:00;;;;;;;3.58;1.90;;;;;;;;;;5094876;28;20024;-32
2022/12/13 03:36:26;;;;;;;3.90;2.30;;;;;;;;;;5094655;28;20115;-31
2022/12/13 03:38:53;;;;;;;3.60;2.45;;;;;;;;;;5094855;28;20058;-31
2022/12/13 03:41:30;;;;;;;2.58;2.15;;;;;;;;;;5094898;28;20024;-31
2022/12/13 03:43:56;;;;;;;4.57;2.33;;;;;;;;;;5094451;28;20024;-31
2022/12/13 03:46:23;;;;;;;4.82;2.33;;;;;;;;;;5094565;28;20035;-31
2022/12/13 03:48:49;;;;;;;3.75;2.33;;;;;;;;;;5077899;28;20431;-31
2022/12/13 03:51:15;;;;;;;2.95;2.20;;;;;;;;;;5095502;28;20028;-31
2022/12/13 03:53:42;;;;;;;5.85;2.50;;;;;;;;;;5098617;28;20028;-31
2022/12/13 03:56:08;;;;;;;5.93;2.58;;;;;;;;;;5098836;28;20047;-32
2022/12/13 03:58:34;;;;;;;4.72;2.22;;;;;;;;;;5098394;28;20024;-32
2022/12/13 04:01:01;;;;;;;2.53;1.90;;;;;;;;;;5098519;28;20034;-32
2022/12/13 04:03:27;;;;;;;3.67;2.35;;;;;;;;;;5098310;28;20044;-32
2022/12/13 04:05:53;;;;;;;4.32;2.55;;;;;;;;;;5080519;28;20028;-32
2022/12/13 04:08:19;;;;;;;6.80;3.10;;;;;;;;;;5098277;28;20038;-31
2022/12/13 04:10:45;;;;;;;3.30;2.15;;;;;;;;;;5098308;28;20058;-30
2022/12/13 04:15:56;;;;;;;2.70;2.03;;;;;;;;;;5098361;28;20083;-31
2022/12/13 04:18:22;;;;;;;4.93;1.90;;;;;;;;;;5098716;28;20040;-32
2022/12/13 04:20:48;;;;;;;6.10;2.70;;;;;;;;;;5097993;28;20044;-31
2022/12/13 04:23:14;;;;;;;3.25;2.50;;;;;;;;;;5097975;28;20024;-31
2022/12/13 04:25:42;;;;;;;4.28;1.98;;;;;;;;;;5098095;28;20036;-30
2022/12/13 04:28:08;;;;;;;2.88;2.17;;;;;;;;;;5080182;28;20073;-31
2022/12/13 04:30:35;;;;;;;3.28;2.10;;;;;;;;;;5098467;28;20035;-31
2022/12/13 04:33:01;;;;;;;5.05;2.05;;;;;;;;;;5097858;28;20077;-31
2022/12/13 04:35:28;;;;;;;3.78;2.03;;;;;;;;;;5098098;28;20027;-31
2022/12/13 04:37:55;;;;;;;4.13;2.60;;;;;;;;;;5079845;28;20024;-32
2022/12/13 04:40:22;;;;;;;3.60;2.35;;;;;;;;;;5097830;28;20032;-31
2022/12/13 04:42:48;;;;;;;4.47;2.22;;;;;;;;;;5097932;28;20024;-31
2022/12/13 04:45:15;;;;;;;3.53;2.13;;;;;;;;;;5097552;28;20056;-32
2022/12/13 04:47:41;;;;;;;4.22;1.92;;;;;;;;;;5097862;28;20078;-31
2022/12/13 04:50:10;;;;;;;3.28;2.10;;;;;;;;;;5097496;28;20110;-32
2022/12/13 04:52:36;;;;;;;3.50;2.17;;;;;;;;;;5096751;28;20385;-31
2022/12/13 04:55:02;;;;;;;3.08;2.55;;;;;;;;;;5097429;28;20413;-31
2022/12/13 04:57:28;;;;;;;3.92;1.55;;;;;;;;;;5097330;28;20047;-31
2022/12/13 04:59:55;;;;;;;3.10;2.08;;;;;;;;;;5097466;28;20085;-31
2022/12/13 05:02:21;;;;;;;3.35;1.95;;;;;;;;;;5097326;28;20028;-31
2022/12/13 05:04:47;;;;;;;6.22;2.72;;;;;;;;;;5096747;28;20042;-31
2022/12/13 05:07:13;;;;;;;5.88;2.20;;;;;;;;;;5097121;28;20123;-32
2022/12/13 05:09:39;;;;;;;3.10;2.35;;;;;;;;;;5079190;28;20032;-31
2022/12/13 05:12:06;;;;;;;3.65;2.40;;;;;;;;;;5097403;28;20119;-32
2022/12/13 05:14:32;;;;;;;3.38;2.00;;;;;;;;;;5078980;28;20020;-31
2022/12/13 05:16:59;;;;;;;3.05;2.28;;;;;;;;;;5096947;28;20534;-31
2022/12/13 05:19:25;;;;;;;4.13;2.08;;;;;;;;;;5096893;28;20039;-32
2022/12/13 05:21:51;;;;;;;3.45;2.05;;;;;;;;;;5096842;28;20440;-32
2022/12/13 05:24:18;;;;;;;6.25;2.33;;;;;;;;;;5096536;28;20020;-32
2022/12/13 05:26:44;;;;;;;5.93;2.35;;;;;;;;;;5096525;28;20032;-41
2022/12/13 05:29:10;;;;;;;5.30;2.20;;;;;;;;;;5096904;28;20032;-31
2022/12/13 05:31:36;;;;;;;3.08;2.45;;;;;;;;;;5096480;28;20084;-31
2022/12/13 05:34:03;;;;;;;3.15;2.15;;;;;;;;;;5096316;28;20028;-32
2022/12/13 05:36:29;;;;;;;2.97;2.25;;;;;;;;;;5096293;28;20462;-32
2022/12/13 05:38:55;;;;;;;3.00;1.90;;;;;;;;;;5096577;28;20028;-32
2022/12/13 05:41:25;;;;;;;2.95;2.40;;;;;;;;;;5096692;28;20036;-32
2022/12/13 05:43:52;;;;;;;4.22;2.42;;;;;;;;;;5096714;28;20042;-33
2022/12/13 05:46:18;;;;;;;6.15;2.85;;;;;;;;;;5096568;28;20418;-31
2022/12/13 05:48:44;;;;;;;2.55;2.15;;;;;;;;;;5096276;28;20034;-33
2022/12/13 05:51:10;;;;;;;3.58;2.50;;;;;;;;;;5096160;28;20035;-31
2022/12/13 05:53:36;;;;;;;2.28;1.85;;;;;;;;;;5096171;28;20359;-32
2022/12/13 05:56:03;;;;;;;3.75;2.30;;;;;;;;;;5095720;28;20108;-31
2022/12/13 05:58:29;;;;;;;3.55;2.15;;;;;;;;;;5095876;28;20016;-31
2022/12/13 06:01:03;;;;;;;3.40;2.35;;;;;;;;;;5095759;28;20092;-31
2022/12/13 06:03:29;;;;;;;8.50;2.22;;;;;;;;;;5095565;28;20150;-32
2022/12/13 06:05:55;;;;;;;6.03;2.08;;;;;;;;;;5096007;28;20435;-32
2022/12/13 06:08:21;;;;;;;3.05;1.80;;;;;;;;;;5095648;28;20103;-31
2022/12/13 06:10:54;;;;;;;9.13;3.35;;;;;;;;;;5095841;28;20036;-32
2022/12/13 06:13:20;;;;;;;6.25;2.17;;;;;;;;;;5095699;28;20036;-32
2022/12/13 06:15:46;;;;;;;3.35;2.00;;;;;;;;;;5095985;28;20024;-31
2022/12/13 06:18:12;;;;;;;4.20;2.25;;;;;;;;;;5095870;28;20024;-33
2022/12/13 06:20:38;;;;;;;4.10;2.08;;;;;;;;;;5077616;28;20351;-30
2022/12/13 06:23:04;;;;;;;4.63;2.17;;;;;;;;;;5095331;28;20124;-31
2022/12/13 06:25:31;;;;;;;4.28;2.20;;;;;;;;;;5095721;28;20031;-32
2022/12/13 06:27:57;;;;;;;8.30;2.35;;;;;;;;;;5095363;28;20048;-31
2022/12/13 06:30:23;;;;;;;3.95;2.50;;;;;;;;;;5095405;28;20032;-31
2022/12/13 06:32:49;;;;;;;9.18;2.70;;;;;;;;;;5095247;28;20031;-32
2022/12/13 06:35:15;;;;;;;9.98;3.78;;;;;;;;;;5095594;28;20106;-32
2022/12/13 06:37:41;;;;;;;7.00;2.70;;;;;;;;;;5095422;28;20119;-31
2022/12/13 06:40:08;;;;;;;12.98;2.92;;;;;;;;;;5094914;28;20042;-31
2022/12/13 06:42:34;;;;;;;10.50;3.03;;;;;;;;;;5095042;28;20023;-32
2022/12/13 06:45:00;;;;;;;5.55;2.95;;;;;;;;;;5077194;28;20056;-31
2022/12/13 06:47:26;;;;;;;7.72;2.58;;;;;;;;;;5095025;28;20024;-32
2022/12/13 06:49:52;;;;;;;9.70;2.92;;;;;;;;;;5095238;28;20031;-32
2022/12/13 06:52:19;;;;;;;5.85;2.53;;;;;;;;;;5095568;28;20074;-31
2022/12/13 06:54:45;;;;;;;5.03;2.55;;;;;;;;;;5077030;28;20031;-32
2022/12/13 06:57:11;;;;;;;8.63;2.40;;;;;;;;;;5094885;28;20028;-32
2022/12/13 06:59:38;;;;;;;5.88;2.15;;;;;;;;;;5094925;28;20355;-32
2022/12/13 07:02:04;;;;;;;4.10;2.10;;;;;;;;;;5094322;28;20020;-31
2022/12/13 07:04:31;;;;;;;2.90;2.10;;;;;;;;;;5095211;28;20032;-32
2022/12/13 07:06:57;;;;;;;4.95;2.45;;;;;;;;;;5094689;28;20406;-32
2022/12/13 07:09:23;;;;;;;3.85;2.30;;;;;;;;;;5094858;28;20520;-32
2022/12/13 07:11:49;;;;;;;5.18;2.65;;;;;;;;;;5095056;28;20024;-31
2022/12/13 07:14:15;;;;;;;3.25;2.10;;;;;;;;;;5094861;28;20032;-31
2022/12/13 07:16:41;;;;;;;10.93;2.58;;;;;;;;;;5094844;28;20409;-31
2022/12/13 07:19:09;;;;;;;2.88;2.08;;;;;;;;;;5094524;28;20081;-31
2022/12/13 07:21:37;;;;;;;5.30;2.38;;;;;;;;;;5094445;28;20451;-32
2022/12/13 07:24:03;;;;;;;5.88;2.40;;;;;;;;;;5094649;28;20036;-31
2022/12/13 07:26:29;;;;;;;6.78;3.70;;;;;;;;;;5094416;28;20024;-32
2022/12/13 07:28:56;;;;;;;7.43;2.40;;;;;;;;;;5095176;28;20081;-31
2022/12/13 07:31:23;;;;;;;3.63;2.40;;;;;;;;;;5094811;28;20344;-30
2022/12/13 07:33:49;;;;;;;5.78;2.47;;;;;;;;;;5095174;28;20034;-31
2022/12/13 07:36:17;;;;;;;8.25;2.67;;;;;;;;;;5095043;28;20362;-31
2022/12/13 07:38:43;;;;;;;13.02;3.10;;;;;;;;;;5094347;28;20031;-31
2022/12/13 07:41:10;;;;;;;6.80;2.67;;;;;;;;;;5094584;28;20105;-32
2022/12/13 07:43:36;;;;;;;10.07;2.63;;;;;;;;;;5093896;28;20024;-32
2022/12/13 07:46:04;;;;;;;10.48;3.17;;;;;;;;;;5094246;28;20019;-32
2022/12/13 07:48:30;;;;;;;10.05;3.30;;;;;;;;;;5094303;28;20039;-31
2022/12/13 07:51:01;;;;;;;7.18;2.58;;;;;;;;;;5094282;28;20032;-32
2022/12/13 07:53:27;;;;;;;5.20;2.47;;;;;;;;;;5094108;28;20028;-31
2022/12/13 07:55:53;;;;;;;5.72;2.67;;;;;;;;;;5094398;28;20426;-31
2022/12/13 07:58:20;;;;;;;8.52;2.70;;;;;;;;;;5094295;28;20024;-32
2022/12/13 08:00:46;;;;;;;5.45;3.05;;;;;;;;;;5094087;28;20110;-33
2022/12/13 08:03:13;;;;;;;5.10;2.70;;;;;;;;;;5093904;28;20040;-31
2022/12/13 08:05:39;;;;;;;15.73;2.80;;;;;;;;;;5094020;28;20028;-32
2022/12/13 08:08:10;;;;;;;6.22;2.83;;;;;;;;;;5094206;28;20032;-31
2022/12/13 08:10:36;;;;;;;6.80;2.40;;;;;;;;;;5094762;28;20039;-32
2022/12/13 08:13:03;;;;;;;3.45;2.35;;;;;;;;;;5093943;28;20024;-30
2022/12/13 08:15:29;;;;;;;6.38;2.47;;;;;;;;;;5093819;28;20036;-32
2022/12/13 08:17:59;;;;;;;7.53;2.88;;;;;;;;;;5076118;28;20028;-32
2022/12/13 08:20:25;;;;;;;7.95;2.63;;;;;;;;;;5093883;28;20512;-31
2022/12/13 08:22:59;;;;;;;10.40;3.35;;;;;;;;;;5093882;28;20024;-31
2022/12/13 08:25:25;;;;;;;6.95;2.95;;;;;;;;;;5094231;28;20069;-30
2022/12/13 08:27:52;;;;;;;14.50;5.55;;;;;;;;;;5093938;28;20028;-30
2022/12/13 08:30:18;;;;;;;12.15;3.08;;;;;;;;;;5094175;28;20039;-33
2022/12/13 08:32:44;;;;;;;4.90;2.35;;;;;;;;;;5093816;28;20056;-32
2022/12/13 08:35:11;;;;;;;6.93;3.13;;;;;;;;;;5093855;28;20073;-30
2022/12/13 08:37:37;;;;;;;9.13;3.03;;;;;;;;;;5094119;28;20051;-30
2022/12/13 08:40:05;;;;;;;5.88;2.42;;;;;;;;;;5097249;28;20101;-32
2022/12/13 08:42:31;;;;;;;10.10;2.47;;;;;;;;;;5097854;28;20107;-31
2022/12/13 08:44:57;;;;;;;7.70;2.55;;;;;;;;;;5097985;28;20095;-31
2022/12/13 08:47:25;;;;;;;13.75;2.78;;;;;;;;;;5097348;28;20028;-32
2022/12/13 08:49:52;;;;;;;7.32;2.72;;;;;;;;;;5097388;28;20024;-31
2022/12/13 08:52:18;;;;;;;15.88;4.18;;;;;;;;;;5097288;28;20343;-31
2022/12/13 08:54:44;;;;;;;6.80;3.00;;;;;;;;;;5079255;28;20028;-31
2022/12/13 08:57:11;;;;;;;11.45;2.38;;;;;;;;;;5097151;28;20028;-31
2022/12/13 08:59:37;;;;;;;6.47;2.88;;;;;;;;;;5097263;28;20024;-31
2022/12/13 09:02:04;;;;;;;13.52;3.92;;;;;;;;;;5096965;28;20042;-32
2022/12/13 09:04:30;;;;;;;8.20;3.35;;;;;;;;;;5097100;28;20035;-31
2022/12/13 09:06:56;;;;;;;7.95;4.20;;;;;;;;;;5097590;28;20089;-31
2022/12/13 09:09:22;;;;;;;7.22;2.70;;;;;;;;;;5079131;28;20067;-31
2022/12/13 09:11:48;;;;;;;8.52;2.47;;;;;;;;;;5097292;28;20081;-31
2022/12/13 09:14:14;;;;;;;13.50;2.83;;;;;;;;;;5078939;28;20534;-32
2022/12/13 09:16:41;;;;;;;8.80;2.67;;;;;;;;;;5096840;28;20361;-31
2022/12/13 09:19:07;;;;;;;14.88;4.10;;;;;;;;;;5097084;28;20024;-31
2022/12/13 09:21:33;;;;;;;6.65;2.65;;;;;;;;;;5097164;28;20435;-31
2022/12/13 09:23:59;;;;;;;13.05;3.78;;;;;;;;;;5096657;28;20028;-32
2022/12/13 09:26:26;;;;;;;10.88;2.47;;;;;;;;;;5097053;28;20061;-30
2022/12/13 09:28:52;;;;;;;12.07;2.85;;;;;;;;;;5096358;28;20013;-32
2022/12/13 09:31:18;;;;;;;13.55;3.40;;;;;;;;;;5096471;28;20035;-31
2022/12/13 09:33:45;;;;;;;11.07;3.38;;;;;;;;;;5096429;28;20447;-30
2022/12/13 09:36:13;;;;;;;18.77;3.85;;;;;;;;;;5096464;28;20354;-31
2022/12/13 09:38:39;;;;;;;6.15;3.38;;;;;;;;;;5096291;28;20080;-30
2022/12/13 09:41:21;;;;;;;6.95;3.00;;;;;;;;;;5097398;28;20032;-30
2022/12/13 09:43:55;;;;;;;9.95;2.92;;;;;;;;;;5078477;28;20024;-30
2022/12/13 09:46:33;;;;;;;7.97;2.75;;;;;;;;;;5096374;28;20039;-31
2022/12/13 09:49:01;;;;;;;15.93;3.88;;;;;;;;;;5095885;28;20107;-32
2022/12/13 09:51:28;;;;;;;9.23;3.55;;;;;;;;;;5095315;28;20537;-33
2022/12/13 09:53:55;;;;;;;6.00;2.85;;;;;;;;;;5096162;28;20439;-31
2022/12/13 09:56:22;;;;;;;18.15;2.83;;;;;;;;;;5096453;28;20024;-31
2022/12/13 09:58:49;;;;;;;7.35;2.85;;;;;;;;;;5095054;28;20035;-31
2022/12/13 10:01:16;;;;;;;10.73;3.42;;;;;;;;;;5095874;28;20028;-31
2022/12/13 10:03:45;;;;;;;9.43;3.00;;;;;;;;;;5095824;28;20040;-32
2022/12/13 10:06:14;;;;;;;8.57;2.95;;;;;;;;;;5095945;28;20458;-31
2022/12/13 10:08:41;;;;;;;11.23;3.22;;;;;;;;;;5096631;28;20092;-32
2022/12/13 10:11:11;;;;;;;14.25;3.15;;;;;;;;;;5095758;28;20028;-32
2022/12/13 10:13:52;;;;;;;7.18;2.92;;;;;;;;;;5095606;28;20027;-32
2022/12/13 10:16:22;;;;;;;9.93;2.97;;;;;;;;;;5077962;28;20463;-33
2022/12/13 10:18:49;;;;;;;10.63;3.72;;;;;;;;;;5096161;28;20033;-31
2022/12/13 10:21:18;;;;;;;8.10;3.10;;;;;;;;;;5095566;28;20024;-32
2022/12/13 10:23:45;;;;;;;6.47;3.17;;;;;;;;;;5095622;28;20089;-32
2022/12/13 10:26:12;;;;;;;19.60;3.67;;;;;;;;;;5095896;28;20429;-32
2022/12/13 10:28:39;;;;;;;6.05;3.33;;;;;;;;;;5095492;28;20016;-31
2022/12/13 10:31:06;;;;;;;6.85;3.03;;;;;;;;;;5095562;28;20028;-31
2022/12/13 10:33:37;;;;;;;8.98;3.42;;;;;;;;;;5095150;28;20358;-31
2022/12/13 10:36:03;;;;;;;;;;;;;;;;;;5095947;28;20036;-31
2022/12/13 10:38:34;;;;;;;9.52;2.80;;;;;;;;;;5095442;28;19957;-30
2022/12/13 10:41:00;;;;;;;10.43;3.40;;;;;;;;;;5095213;28;20397;-30
2022/12/13 10:43:27;;;;;;;14.80;5.60;;;;;;;;;;5077120;28;20107;-31
2022/12/13 10:45:59;;;;;;;7.43;4.43;;;;;;;;;;5076957;28;20032;-31
2022/12/13 10:48:35;;;;;;;18.42;3.55;;;;;;;;;;5094620;28;20366;-31
2022/12/13 10:51:06;;;;;;;8.85;3.30;;;;;;;;;;5094956;28;20032;-31
2022/12/13 10:53:34;;;;;;;8.05;2.67;;;;;;;;;;5094403;28;20109;-30
2022/12/13 10:56:01;;;;;;;12.13;4.00;;;;;;;;;;5094978;28;20031;-32
2022/12/13 10:58:35;;;;;;;12.30;3.25;;;;;;;;;;5094964;28;20123;-31
2022/12/13 11:01:16;;;;;;;15.57;3.42;;;;;;;;;;5094188;28;20450;-32
2022/12/13 11:03:43;;;;;;;17.30;4.65;;;;;;;;;;5094609;28;20055;-30
2022/12/13 11:06:19;;;;;;;15.95;4.00;;;;;;;;;;5095416;28;20080;-32
2022/12/13 11:08:45;;;;;;;9.73;4.38;;;;;;;;;;5095477;28;20043;-32
2022/12/13 11:11:11;;;;;;;8.32;2.95;;;;;;;;;;5094885;28;20031;-31
2022/12/13 11:13:40;;;;;;;16.20;4.70;;;;;;;;;;5076963;28;20077;-32
2022/12/13 11:16:24;;;;;;;19.13;4.72;;;;;;;;;;5094733;28;20102;-30
2022/12/13 11:18:54;;;;;;;11.32;3.53;;;;;;;;;;5094564;28;20020;-31
2022/12/13 11:21:25;;;;;;;15.70;3.38;;;;;;;;;;5094839;28;20046;-32
2022/12/13 11:23:54;;;;;;;9.23;3.40;;;;;;;;;;5094436;28;20135;-30
2022/12/13 11:26:22;;;;;;;12.48;4.47;;;;;;;;;;5094537;28;20022;-32
2022/12/13 11:29:11;;;;;;;10.38;3.63;;;;;;;;;;5076767;28;20106;-31
2022/12/13 11:31:46;;;;;;;8.82;3.95;;;;;;;;;;5094837;28;20383;-32
2022/12/13 11:34:23;;;;;;;16.45;4.18;;;;;;;;;;5094589;28;20035;-32
2022/12/13 11:37:05;;;;;;;12.98;5.13;;;;;;;;;;5094468;28;20447;-32
2022/12/13 11:39:40;;;;;;;12.82;4.07;;;;;;;;;;5094278;28;20024;-32
2022/12/13 11:42:15;;;;;;;22.35;4.18;;;;;;;;;;5094319;28;20024;-31
2022/12/13 11:44:50;;;;;;;7.10;3.30;;;;;;;;;;5076528;28;20028;-32
2022/12/13 11:47:23;;;;;;;12.23;3.50;;;;;;;;;;5094255;28;20024;-32
2022/12/13 11:49:49;;;;;;;9.18;3.72;;;;;;;;;;5076503;28;20028;-31
2022/12/13 11:52:25;;;;;;;16.77;4.93;;;;;;;;;;5094354;28;20021;-31
2022/12/13 11:54:57;;;;;;;12.60;3.60;;;;;;;;;;5094388;28;20031;-31
2022/12/13 11:57:32;;;;;;;10.35;4.05;;;;;;;;;;5094263;28;20032;-30
2022/12/13 12:00:10;;;;;;;9.38;3.33;;;;;;;;;;5076301;28;20477;-30
2022/12/13 12:02:41;;;;;;;13.27;5.15;;;;;;;;;;5094108;28;20048;-31
2022/12/13 12:05:30;;;;;;;11.10;3.75;;;;;;;;;;5076479;28;20411;-31
2022/12/13 12:08:01;;;;;;;10.60;3.50;;;;;;;;;;5083928;28;20028;-30
2022/12/13 12:10:36;;;;;;;10.03;4.10;;;;;;;;;;5094158;28;20086;-32
2022/12/13 12:13:21;;;;;;;7.60;3.10;;;;;;;;;;5096317;28;20277;-30
2022/12/13 12:15:56;;;;;;;9.20;3.45;;;;;;;;;;5097853;28;20036;-31
2022/12/13 12:18:22;;;;;;;14.00;3.58;;;;;;;;;;5098264;28;20035;-32
2022/12/13 12:21:07;;;;;;;8.38;3.15;;;;;;;;;;5098252;28;20107;-31
2022/12/13 12:23:40;;;;;;;14.85;3.85;;;;;;;;;;5097777;28;20058;-31
2022/12/13 12:26:08;;;;;;;11.52;3.75;;;;;;;;;;5098225;28;20081;-32
2022/12/13 12:28:46;;;;;;;11.18;3.63;;;;;;;;;;5098151;28;20024;-31
2022/12/13 12:31:30;;;;;;;6.05;3.13;;;;;;;;;;5098107;28;20363;-31
2022/12/13 12:33:56;;;;;;;9.60;4.75;;;;;;;;;;5097690;28;20027;-31
2022/12/13 12:36:33;;;;;;;8.23;3.78;;;;;;;;;;5097975;28;20046;-31
2022/12/13 12:38:59;;;;;;;10.48;3.55;;;;;;;;;;5097782;28;20384;-31
2022/12/13 12:41:30;;;;;;;11.15;3.83;;;;;;;;;;5098157;28;20435;-31
2022/12/13 12:44:23;;;;;;;10.38;3.22;;;;;;;;;;5097540;28;20024;-32
2022/12/13 12:46:58;;;;;;;8.70;3.47;;;;;;;;;;5066861;28;20036;-32
2022/12/13 12:49:43;;;;;;;8.02;4.22;;;;;;;;;;5097783;28;20102;-30
2022/12/13 12:52:20;;;;;;;10.27;3.20;;;;;;;;;;5097317;28;20060;-31
2022/12/13 12:55:04;;;;;;;11.65;3.72;;;;;;;;;;5097376;28;20040;-31
2022/12/13 12:57:40;;;;;;;10.38;4.65;;;;;;;;;;5097859;28;20111;-31
2022/12/13 13:00:09;;;;;;;13.50;3.70;;;;;;;;;;5097630;28;20027;-31
2022/12/13 13:02:38;;;;;;;16.75;4.07;;;;;;;;;;5097112;28;20132;-31
2022/12/13 13:05:17;;;;;;;6.78;3.63;;;;;;;;;;5097468;28;20040;-31
2022/12/13 13:07:53;;;;;;;9.68;3.45;;;;;;;;;;5097374;28;20355;-31
2022/12/13 13:10:20;;;;;;;7.45;3.53;;;;;;;;;;5097489;28;20054;-31
2022/12/13 13:12:46;;;;;;;5.25;3.30;;;;;;;;;;5097133;28;20107;-33
2022/12/13 13:15:38;;;;;;;12.18;3.72;;;;;;;;;;5096895;28;20024;-31
2022/12/13 13:18:25;;;;;;;8.30;3.03;;;;;;;;;;5096662;28;20042;-31
2022/12/13 13:21:11;;;;;;;7.82;3.65;;;;;;;;;;5096891;28;20050;-32
2022/12/13 13:23:37;;;;;;;5.78;3.58;;;;;;;;;;5096017;28;20366;-31
2022/12/13 13:26:03;;;;;;;10.23;3.67;;;;;;;;;;5096188;28;20513;-31
2022/12/13 13:28:29;;;;;;;16.60;3.60;;;;;;;;;;5096389;28;20504;-30
2022/12/13 13:31:07;;;;;;;9.73;4.30;;;;;;;;;;5096783;28;20028;-31
2022/12/13 13:33:50;;;;;;;11.15;3.97;;;;;;;;;;5096393;28;20039;-30
2022/12/13 13:36:34;;;;;;;9.80;3.70;;;;;;;;;;5096424;28;20385;-30
2022/12/13 13:39:01;;;;;;;10.68;3.92;;;;;;;;;;5096360;28;20049;-32
2022/12/13 13:41:59;;;;;;;9.27;2.90;;;;;;;;;;5096327;28;20031;-32
2022/12/13 13:44:55;;;;;;;6.53;3.95;;;;;;;;;;5052016;28;20032;-32
2022/12/13 13:47:21;;;;;;;13.30;3.45;;;;;;;;;;5096191;28;20534;-33
2022/12/13 13:50:00;;;;;;;10.50;5.03;;;;;;;;;;5096241;28;20035;-32
2022/12/13 13:52:46;;;;;;;6.63;2.95;;;;;;;;;;5096325;28;20371;-32
2022/12/13 13:55:31;;;;;;;17.73;4.78;;;;;;;;;;5082182;28;20151;-32
2022/12/13 13:58:09;;;;;;;9.93;3.60;;;;;;;;;;5096202;28;20516;-32
2022/12/13 14:00:35;;;;;;;14.98;3.85;;;;;;;;;;5096043;28;20346;-32
2022/12/13 14:03:04;;;;;;;10.20;3.40;;;;;;;;;;5095590;28;20106;-33
2022/12/13 14:05:36;;;;;;;9.65;3.83;;;;;;;;;;5095741;28;20024;-32
2022/12/13 14:08:28;;;;;;;12.30;3.35;;;;;;;;;;5095966;28;20024;-30
2022/12/13 14:10:57;;;;;;;4.40;3.13;;;;;;;;;;5095625;28;20044;-30
2022/12/13 14:13:32;;;;;;;10.45;3.85;;;;;;;;;;5095532;28;20370;-31
2022/12/13 14:16:01;;;;;;;12.07;5.10;;;;;;;;;;5095430;28;20036;-30
2022/12/13 14:18:46;;;;;;;11.25;3.38;;;;;;;;;;5095597;28;20496;-31
2022/12/13 14:21:13;;;;;;;7.07;4.50;;;;;;;;;;5095375;28;20462;-32
2022/12/13 14:23:42;;;;;;;6.78;3.75;;;;;;;;;;5095287;28;20107;-30
2022/12/13 14:26:18;;;;;;;8.00;3.50;;;;;;;;;;5095982;28;20028;-31
2022/12/13 14:28:55;;;;;;;10.98;3.53;;;;;;;;;;5095679;28;20024;-31
2022/12/13 14:31:30;;;;;;;11.07;3.45;;;;;;;;;;5095296;28;20073;-31
2022/12/13 14:33:57;;;;;;;10.18;4.70;;;;;;;;;;5095322;28;20024;-31
2022/12/13 14:36:33;;;;;;;10.88;4.55;;;;;;;;;;5094250;28;20039;-32
2022/12/13 14:39:20;;;;;;;10.45;3.72;;;;;;;;;;5095844;28;20439;-32
2022/12/13 14:41:47;;;;;;;15.30;3.58;;;;;;;;;;5095394;28;20332;-33
2022/12/13 14:44:24;;;;;;;7.85;3.80;;;;;;;;;;5095445;28;20024;-31
2022/12/13 14:46:54;;;;;;;5.47;3.95;;;;;;;;;;5095090;28;20502;-32
2022/12/13 14:49:21;;;;;;;12.40;4.38;;;;;;;;;;5095365;28;20051;-32
2022/12/13 14:51:51;;;;;;;7.45;3.50;;;;;;;;;;5094944;28;20032;-31
2022/12/13 14:54:21;;;;;;;9.05;4.00;;;;;;;;;;5094980;28;20042;-31
2022/12/13 14:57:01;;;;;;;11.23;3.80;;;;;;;;;;5094986;28;20082;-31
2022/12/13 14:59:29;;;;;;;12.60;3.78;;;;;;;;;;5094854;28;20032;-32
2022/12/13 15:01:59;;;;;;;7.88;3.28;;;;;;;;;;5094922;28;20024;-31
2022/12/13 15:04:28;;;;;;;10.02;3.33;;;;;;;;;;5094722;28;20576;-32